Nordic Star — WDC6442 — position and weather

sailwx.info

Track history (hours):
 
Tides and Currents Weather Stations Pressure Air Temp Water Temp Dewpoint Dewpoint Depression Visibility Wind Speed Wind Dir Waves Ship Positions

Nordic Star

Owner: F/V Nordic Star LLC, SEATTLE, WA. More information available from US FCC via Universal Licensing System and Coast Guard Vessel Documentation Center.

Last reported at 2017-Oct-17 07:30 UTC. Time now 2017-Oct-20 19:49 UTC.
Position N 43°12' W 124°54'.

Length 33 m.

Type: Fishing. MMSI: 367056452.

Date/timePositionNaut miles runAvg speedWind from/ knotsBaromVisibWave heightAir tempDewpointWater temp
2017-Oct-17 07:30N 43°12' W 124°54'38 2.0
2017-Oct-16 12:47N 43°50' W 124°46'1 3.0
2017-Oct-16 12:22N 43°49' W 124°47'  
2017-Oct-10 09:39N 44°03' W 124°57'11 2.4
2017-Oct-10 05:01N 44°13' W 125°03'4 1.6
2017-Oct-10 02:21N 44°09' W 125°02'2 0.6
2017-Oct-09 23:25N 44°11' W 125°02'1 1.9
2017-Oct-09 23:00N 44°11' W 125°01'2 2.5
2017-Oct-09 22:10N 44°13' W 124°59'1 3.4
2017-Oct-09 22:00N 44°14' W 124°59'2 3.2
2017-Oct-09 21:30N 44°15' W 124°58'2 3.9
2017-Oct-09 21:01N 44°17' W 124°58'1 3.0
2017-Oct-09 20:30N 44°15' W 124°58'3 6.8
2017-Oct-09 20:00N 44°13' W 125°00'4 8.4
2017-Oct-09 19:30N 44°08' W 124°59'5 9.0
2017-Oct-09 19:00N 44°04' W 124°59'14 1.0
2017-Oct-09 04:53N 43°51' W 124°53'1 3.0
2017-Oct-09 04:30N 43°52' W 124°52'2 3.3
2017-Oct-09 04:00N 43°51' W 124°50'  
Track history (hours):
 
Tides and Currents Weather Stations Pressure Air Temp Water Temp Dewpoint Dewpoint Depression Visibility Wind Speed Wind Dir Waves Ship Positions

Nordic Star

Owner: F/V Nordic Star LLC, SEATTLE, WA. More information available from US FCC via Universal Licensing System and Coast Guard Vessel Documentation Center.

Last reported at 2017-Oct-17 07:30 UTC. Time now 2017-Oct-20 19:49 UTC.
Position N 43°12' W 124°54'.

Length 33 m.

Type: Fishing. MMSI: 367056452.

Date/timePositionNaut miles runAvg speedWind from/ knotsBaromVisibWave heightAir tempDewpointWater temp
2017-Oct-17 07:30N 43°12' W 124°54'38 2.0
2017-Oct-16 12:47N 43°50' W 124°46'1 3.0
2017-Oct-16 12:22N 43°49' W 124°47'  
2017-Oct-10 09:39N 44°03' W 124°57'11 2.4
2017-Oct-10 05:01N 44°13' W 125°03'4 1.6
2017-Oct-10 02:21N 44°09' W 125°02'2 0.6
2017-Oct-09 23:25N 44°11' W 125°02'1 1.9
2017-Oct-09 23:00N 44°11' W 125°01'2 2.5
2017-Oct-09 22:10N 44°13' W 124°59'1 3.4
2017-Oct-09 22:00N 44°14' W 124°59'2 3.2
2017-Oct-09 21:30N 44°15' W 124°58'2 3.9
2017-Oct-09 21:01N 44°17' W 124°58'1 3.0
2017-Oct-09 20:30N 44°15' W 124°58'3 6.8
2017-Oct-09 20:00N 44°13' W 125°00'4 8.4
2017-Oct-09 19:30N 44°08' W 124°59'5 9.0
2017-Oct-09 19:00N 44°04' W 124°59'14 1.0
2017-Oct-09 04:53N 43°51' W 124°53'1 3.0
2017-Oct-09 04:30N 43°52' W 124°52'2 3.3
2017-Oct-09 04:00N 43°51' W 124°50'  

Dump ship's entire track history